createdAt,value
2023-05-06T00:00:07.027Z,99.90
2023-05-06T00:02:33.971Z,99.90
2023-05-06T00:05:00.944Z,99.90
2023-05-06T00:07:27.800Z,99.90
2023-05-06T00:09:54.679Z,99.90
2023-05-06T00:12:21.613Z,99.90
2023-05-06T00:14:48.527Z,99.90
2023-05-06T00:17:15.586Z,99.90
2023-05-06T00:19:42.456Z,99.90
2023-05-06T00:22:09.333Z,99.90
2023-05-06T00:24:36.259Z,99.90
2023-05-06T00:27:03.164Z,99.90
2023-05-06T00:29:30.044Z,99.90
2023-05-06T00:31:56.982Z,99.90
2023-05-06T00:34:23.925Z,99.90
2023-05-06T00:36:50.927Z,99.90
2023-05-06T00:39:18.013Z,99.90
2023-05-06T00:41:44.968Z,99.90
2023-05-06T00:44:11.910Z,99.90
2023-05-06T00:46:39.363Z,99.90
2023-05-06T00:49:06.554Z,99.90
2023-05-06T00:51:33.572Z,99.90
2023-05-06T00:54:01.685Z,99.90
2023-05-06T00:56:28.725Z,99.90
2023-05-06T00:58:55.694Z,99.90
2023-05-06T01:01:25.596Z,99.90
2023-05-06T01:03:57.188Z,99.90
2023-05-06T01:06:34.455Z,99.90
2023-05-06T01:09:21.014Z,99.90
2023-05-06T01:12:04.951Z,99.90
2023-05-06T01:15:06.737Z,99.90
2023-05-06T01:17:35.729Z,99.90
2023-05-06T01:20:06.451Z,99.90
2023-05-06T01:22:36.728Z,99.90
2023-05-06T01:25:03.716Z,99.90
2023-05-06T01:27:30.597Z,99.90
2023-05-06T01:29:58.544Z,99.90
2023-05-06T01:32:40.818Z,99.90
2023-05-06T01:35:29.768Z,99.90
2023-05-06T01:38:15.887Z,99.90
2023-05-06T01:40:45.089Z,99.90
2023-05-06T01:43:13.597Z,99.90
2023-05-06T01:45:41.493Z,99.90
2023-05-06T01:48:09.638Z,99.90
2023-05-06T01:50:37.500Z,99.90
2023-05-06T01:53:04.337Z,99.90
2023-05-06T01:55:32.215Z,99.90
2023-05-06T01:57:59.181Z,99.90
2023-05-06T02:00:26.654Z,99.90
2023-05-06T02:02:53.729Z,99.90
2023-05-06T02:05:20.759Z,99.90
2023-05-06T02:07:47.711Z,99.90
2023-05-06T02:10:14.673Z,99.90
2023-05-06T02:12:41.571Z,99.90
2023-05-06T02:15:09.227Z,99.90
2023-05-06T02:17:37.668Z,99.90
2023-05-06T02:20:05.996Z,99.90
2023-05-06T02:22:32.953Z,99.90
2023-05-06T02:24:59.880Z,99.90
2023-05-06T02:27:26.836Z,99.90
2023-05-06T02:29:54.040Z,99.90
2023-05-06T02:32:21.107Z,99.90
2023-05-06T02:34:47.993Z,99.90
2023-05-06T02:37:14.792Z,99.90
2023-05-06T02:39:41.700Z,99.90
2023-05-06T02:42:08.576Z,99.90
2023-05-06T02:44:35.710Z,99.90
2023-05-06T02:47:02.696Z,99.90
2023-05-06T02:49:29.747Z,99.90
2023-05-06T02:51:57.060Z,99.90
2023-05-06T02:54:23.991Z,99.90
2023-05-06T02:56:54.080Z,99.90
2023-05-06T02:59:22.117Z,99.90
2023-05-06T03:01:49.026Z,99.90
2023-05-06T03:04:16.006Z,99.90
2023-05-06T03:06:42.814Z,99.90
2023-05-06T03:09:09.939Z,99.90
2023-05-06T03:11:39.843Z,99.90
2023-05-06T03:14:06.867Z,99.90
2023-05-06T03:16:33.758Z,99.90
2023-05-06T03:19:00.785Z,99.90
2023-05-06T03:21:27.819Z,99.90
2023-05-06T03:23:54.738Z,99.90
2023-05-06T03:26:21.689Z,99.90
2023-05-06T03:28:48.573Z,99.90
2023-05-06T03:31:15.606Z,99.90
2023-05-06T03:33:42.565Z,99.90
2023-05-06T03:36:09.513Z,99.90
2023-05-06T03:38:36.436Z,99.90
2023-05-06T03:41:03.420Z,99.90
2023-05-06T03:43:30.523Z,99.90
2023-05-06T03:45:58.233Z,99.90
2023-05-06T03:48:25.746Z,99.90
2023-05-06T03:50:52.710Z,99.90
2023-05-06T03:53:19.594Z,99.90
2023-05-06T03:55:46.482Z,99.90
2023-05-06T03:58:13.362Z,99.90
2023-05-06T04:00:40.255Z,99.90
2023-05-06T04:03:07.183Z,99.90
2023-05-06T04:05:34.158Z,99.90
2023-05-06T04:08:01.190Z,99.90
2023-05-06T04:10:28.128Z,99.90
2023-05-06T04:12:55.009Z,99.90
2023-05-06T04:15:21.946Z,99.90
2023-05-06T04:17:50.358Z,99.90
2023-05-06T04:20:17.256Z,99.90
2023-05-06T04:22:44.156Z,99.90
2023-05-06T04:25:12.131Z,99.90
2023-05-06T04:27:39.243Z,99.90
2023-05-06T04:30:06.800Z,99.90
2023-05-06T04:32:34.208Z,99.90
2023-05-06T04:35:01.202Z,99.90
2023-05-06T04:37:28.427Z,99.90
2023-05-06T04:39:55.845Z,99.90
2023-05-06T04:42:23.124Z,99.90
2023-05-06T04:44:50.067Z,99.90
2023-05-06T04:47:17.148Z,99.90
2023-05-06T04:49:44.050Z,99.90
2023-05-06T04:52:10.935Z,99.90
2023-05-06T04:54:37.739Z,99.90
2023-05-06T04:57:04.742Z,99.90
2023-05-06T04:59:31.563Z,99.90
2023-05-06T05:01:58.417Z,99.90
2023-05-06T05:04:26.401Z,99.90
2023-05-06T05:06:53.340Z,99.90
2023-05-06T05:09:20.294Z,99.90
2023-05-06T05:11:47.196Z,99.90
2023-05-06T05:14:14.052Z,99.90
2023-05-06T05:16:41.112Z,99.90
2023-05-06T05:19:09.496Z,99.90
2023-05-06T05:21:39.375Z,99.90
2023-05-06T05:24:06.358Z,99.90
2023-05-06T05:26:33.348Z,99.90
2023-05-06T05:29:00.216Z,99.90
2023-05-06T05:31:27.096Z,99.90
2023-05-06T05:33:53.993Z,99.90
2023-05-06T05:36:21.042Z,99.90
2023-05-06T05:38:47.908Z,99.90
2023-05-06T05:41:17.284Z,99.90
2023-05-06T05:43:44.432Z,99.90
2023-05-06T05:46:11.346Z,99.90
2023-05-06T05:48:39.820Z,99.90
2023-05-06T05:51:06.848Z,99.90
2023-05-06T05:53:33.666Z,99.90
2023-05-06T05:56:00.550Z,99.90
2023-05-06T05:58:27.381Z,99.90
2023-05-06T06:00:54.197Z,99.90
2023-05-06T06:03:21.149Z,99.90
2023-05-06T06:05:49.514Z,99.90
2023-05-06T06:08:18.793Z,99.90
2023-05-06T06:10:46.161Z,99.90
2023-05-06T06:13:13.649Z,99.90
2023-05-06T06:15:41.415Z,99.90
2023-05-06T06:18:08.991Z,99.90
2023-05-06T06:20:39.056Z,99.90
2023-05-06T06:23:05.986Z,99.90
2023-05-06T06:25:32.858Z,99.90
2023-05-06T06:27:59.683Z,99.90
2023-05-06T06:30:26.859Z,99.90
2023-05-06T06:32:54.272Z,99.90
2023-05-06T06:35:21.131Z,99.90
2023-05-06T06:37:48.033Z,99.90
2023-05-06T06:40:15.542Z,99.90
2023-05-06T06:42:42.389Z,99.90
2023-05-06T06:45:10.225Z,99.90
2023-05-06T06:47:37.493Z,99.90
2023-05-06T06:50:05.132Z,99.90
2023-05-06T06:52:32.016Z,99.90
2023-05-06T06:54:58.925Z,99.90
2023-05-06T06:57:25.867Z,99.90
2023-05-06T06:59:53.770Z,99.90
2023-05-06T07:02:23.645Z,99.90
2023-05-06T07:04:50.576Z,99.90
2023-05-06T07:07:17.487Z,99.90
2023-05-06T07:09:44.541Z,99.90
2023-05-06T07:12:12.102Z,99.90
2023-05-06T07:14:39.090Z,99.90
2023-05-06T07:17:06.095Z,99.90
2023-05-06T07:19:33.014Z,99.90
2023-05-06T07:22:00.809Z,99.90
2023-05-06T07:24:27.672Z,99.90
2023-05-06T07:26:54.597Z,99.90
2023-05-06T07:29:21.410Z,99.90
2023-05-06T07:31:48.209Z,99.90
2023-05-06T07:34:15.109Z,99.90
2023-05-06T07:36:43.437Z,99.90
2023-05-06T07:39:11.647Z,99.90
2023-05-06T07:41:38.845Z,99.90
2023-05-06T07:44:06.457Z,99.90
2023-05-06T07:46:33.741Z,99.90
2023-05-06T07:49:00.711Z,99.90
2023-05-06T07:51:28.156Z,99.90
2023-05-06T07:53:54.984Z,99.90
2023-05-06T07:56:21.865Z,99.90
2023-05-06T07:58:51.183Z,99.90
2023-05-06T08:01:17.978Z,99.90
2023-05-06T08:03:44.932Z,99.90
2023-05-06T08:06:12.241Z,99.90
2023-05-06T08:08:39.166Z,99.90
2023-05-06T08:11:06.158Z,99.90
2023-05-06T08:13:33.603Z,99.90
2023-05-06T08:16:02.539Z,99.90
2023-05-06T08:18:30.048Z,99.90
2023-05-06T08:20:56.997Z,99.90
2023-05-06T08:23:23.953Z,99.90
2023-05-06T08:25:51.011Z,99.90
2023-05-06T08:28:17.915Z,99.90
2023-05-06T08:30:47.696Z,99.90
2023-05-06T08:33:14.717Z,99.90
2023-05-06T08:35:41.746Z,99.90
2023-05-06T08:38:08.591Z,99.90
2023-05-06T08:40:43.203Z,99.90
2023-05-06T08:43:21.218Z,99.90
2023-05-06T08:45:51.720Z,99.90
2023-05-06T08:48:18.655Z,99.90
2023-05-06T08:50:46.298Z,99.90
2023-05-06T08:53:14.078Z,99.90
2023-05-06T08:55:42.073Z,99.90
2023-05-06T08:58:13.434Z,99.90
2023-05-06T09:00:40.431Z,99.90
2023-05-06T09:03:07.468Z,99.90
2023-05-06T09:05:34.443Z,99.90
2023-05-06T09:08:01.265Z,99.90
2023-05-06T09:11:00.904Z,99.90
2023-05-06T09:13:27.886Z,99.90
2023-05-06T09:15:55.423Z,99.90
2023-05-06T09:18:23.199Z,99.90
2023-05-06T09:20:53.420Z,99.90
2023-05-06T09:23:22.264Z,99.90
2023-05-06T09:25:51.099Z,99.90
2023-05-06T09:28:17.988Z,99.90
2023-05-06T09:30:47.548Z,99.90
2023-05-06T09:33:14.597Z,99.90
2023-05-06T09:35:43.336Z,99.90
2023-05-06T09:38:11.019Z,99.90
2023-05-06T09:40:39.073Z,99.90
2023-05-06T09:43:06.718Z,99.90
2023-05-06T09:45:33.907Z,99.90
2023-05-06T09:48:01.382Z,99.90
2023-05-06T09:50:28.746Z,99.90
2023-05-06T09:52:56.574Z,99.90
2023-05-06T09:55:27.020Z,99.90
2023-05-06T09:57:55.450Z,99.90
2023-05-06T10:00:28.008Z,99.90
2023-05-06T10:02:56.058Z,99.90
2023-05-06T10:05:24.898Z,99.90
2023-05-06T10:07:53.436Z,99.90
2023-05-06T10:10:22.340Z,99.90
2023-05-06T10:12:51.206Z,99.90
2023-05-06T10:15:18.053Z,99.90
2023-05-06T10:17:48.112Z,99.90
2023-05-06T10:20:15.428Z,99.90
2023-05-06T10:23:12.830Z,99.90
2023-05-06T10:25:42.565Z,99.90
2023-05-06T10:28:14.982Z,99.90
2023-05-06T10:30:50.507Z,99.90
2023-05-06T10:33:18.256Z,99.90
2023-05-06T10:35:53.017Z,99.90
2023-05-06T10:38:41.499Z,99.90
2023-05-06T10:41:09.672Z,99.60
2023-05-06T10:43:41.552Z,99.70
2023-05-06T10:46:16.385Z,99.90
2023-05-06T10:49:11.470Z,99.90
2023-05-06T10:51:39.311Z,99.90
2023-05-06T10:54:12.297Z,99.90
2023-05-06T10:56:59.399Z,99.90
2023-05-06T10:59:31.480Z,99.90
2023-05-06T11:02:04.714Z,99.40
2023-05-06T11:04:31.719Z,99.10
2023-05-06T11:07:15.994Z,99.20
2023-05-06T11:10:02.193Z,99.60
2023-05-06T11:12:49.419Z,99.70
2023-05-06T11:15:20.913Z,99.60
2023-05-06T11:17:47.954Z,99.90
2023-05-06T11:20:23.409Z,99.90
2023-05-06T11:22:53.506Z,98.40
2023-05-06T11:25:40.283Z,97.90
2023-05-06T11:28:11.691Z,98.10
2023-05-06T11:30:42.342Z,98.20
2023-05-06T11:33:17.475Z,97.00
2023-05-06T11:35:45.119Z,97.80
2023-05-06T11:38:12.493Z,98.50
2023-05-06T11:40:41.816Z,99.60
2023-05-06T11:43:16.390Z,99.00
2023-05-06T11:45:48.462Z,99.70
2023-05-06T11:48:16.115Z,99.50
2023-05-06T11:50:49.833Z,99.60
2023-05-06T11:53:23.886Z,99.60
2023-05-06T11:55:54.442Z,99.40
2023-05-06T11:58:30.507Z,99.90
2023-05-06T12:00:59.346Z,99.90
2023-05-06T12:03:27.903Z,99.90
2023-05-06T12:05:55.866Z,99.90
2023-05-06T12:08:30.723Z,99.90
2023-05-06T12:11:06.964Z,99.90
2023-05-06T12:13:36.991Z,99.90
2023-05-06T12:16:05.807Z,99.90
2023-05-06T12:18:33.107Z,99.90
2023-05-06T12:21:07.403Z,99.90
2023-05-06T12:23:34.298Z,99.90
2023-05-06T12:26:06.659Z,99.90
2023-05-06T12:28:35.790Z,99.90
2023-05-06T12:31:22.395Z,99.90
2023-05-06T12:33:50.531Z,99.90
2023-05-06T12:36:18.664Z,99.90
2023-05-06T12:38:52.078Z,99.90
2023-05-06T12:41:20.123Z,99.90
2023-05-06T12:43:47.472Z,99.90
2023-05-06T12:46:16.213Z,99.90
2023-05-06T12:49:02.700Z,99.90
2023-05-06T12:51:30.967Z,99.90
2023-05-06T12:53:58.107Z,99.90
2023-05-06T12:56:25.292Z,99.90
2023-05-06T12:58:59.722Z,99.90
2023-05-06T13:01:26.663Z,99.90
2023-05-06T13:03:57.084Z,99.90
2023-05-06T13:06:24.117Z,99.90
2023-05-06T13:08:54.410Z,99.90
2023-05-06T13:11:22.284Z,99.90
2023-05-06T13:13:51.811Z,99.90
2023-05-06T13:16:18.684Z,99.90
2023-05-06T13:18:45.803Z,99.90
2023-05-06T13:21:14.076Z,99.90
2023-05-06T13:23:46.880Z,99.90
2023-05-06T13:26:14.452Z,99.90
2023-05-06T13:28:41.326Z,99.90
2023-05-06T13:31:08.300Z,99.90
2023-05-06T13:33:35.791Z,99.90
2023-05-06T13:36:04.534Z,99.90
2023-05-06T13:38:32.364Z,99.90
2023-05-06T13:40:59.316Z,99.90
2023-05-06T13:43:26.225Z,99.90
2023-05-06T13:45:53.653Z,99.90
2023-05-06T13:48:20.700Z,99.90
2023-05-06T13:50:48.170Z,99.90
2023-05-06T13:53:15.829Z,99.90
2023-05-06T13:55:43.668Z,99.90
2023-05-06T13:58:11.073Z,99.90
2023-05-06T14:00:38.189Z,99.90
2023-05-06T14:03:05.310Z,99.90
2023-05-06T14:05:32.868Z,99.90
2023-05-06T14:07:59.876Z,99.90
2023-05-06T14:10:26.834Z,99.90
2023-05-06T14:12:53.803Z,99.90
2023-05-06T14:15:20.765Z,99.90
2023-05-06T14:17:47.732Z,99.40
2023-05-06T14:20:14.627Z,99.00
2023-05-06T14:22:43.154Z,98.20
2023-05-06T14:25:10.756Z,97.30
2023-05-06T14:27:38.042Z,96.80
2023-05-06T14:30:08.595Z,95.80
2023-05-06T14:32:36.654Z,95.10
2023-05-06T14:35:04.533Z,95.10
2023-05-06T14:37:31.533Z,95.20
2023-05-06T14:39:58.419Z,96.10
2023-05-06T14:42:25.276Z,95.10
2023-05-06T14:44:52.077Z,95.20
2023-05-06T14:47:19.044Z,95.10
2023-05-06T14:49:45.912Z,95.90
2023-05-06T14:52:12.825Z,96.70
2023-05-06T14:54:42.677Z,96.20
2023-05-06T14:57:10.296Z,96.40
2023-05-06T14:59:38.089Z,95.00
2023-05-06T15:02:08.671Z,94.40
2023-05-06T15:04:36.489Z,93.90
2023-05-06T15:07:04.088Z,94.20
2023-05-06T15:09:31.200Z,94.60
2023-05-06T15:11:58.306Z,94.10
2023-05-06T15:14:25.243Z,94.40
2023-05-06T15:16:57.166Z,94.70
2023-05-06T15:19:24.537Z,94.60
2023-05-06T15:21:51.805Z,95.20
2023-05-06T15:24:18.787Z,95.70
2023-05-06T15:26:45.954Z,95.90
2023-05-06T15:29:12.907Z,96.20
2023-05-06T15:31:40.964Z,97.40
2023-05-06T15:34:10.643Z,97.80
2023-05-06T15:36:38.296Z,97.60
2023-05-06T15:39:05.421Z,98.20
2023-05-06T15:41:33.832Z,98.40
2023-05-06T15:44:03.288Z,98.60
2023-05-06T15:46:31.413Z,98.40
2023-05-06T15:49:22.170Z,99.40
2023-05-06T15:51:45.384Z,99.50
2023-05-06T15:54:13.093Z,99.50
2023-05-06T15:56:41.656Z,98.90
2023-05-06T15:59:09.170Z,97.70
2023-05-06T16:02:18.968Z,97.00
2023-05-06T16:04:24.481Z,96.60
2023-05-06T16:06:51.542Z,96.60
2023-05-06T16:09:18.401Z,96.40
2023-05-06T16:11:45.258Z,96.70
2023-05-06T16:14:13.094Z,97.00
2023-05-06T16:16:40.204Z,96.70
2023-05-06T16:19:07.624Z,96.40
2023-05-06T16:21:34.521Z,96.80
2023-05-06T16:24:01.412Z,97.30
2023-05-06T16:26:28.350Z,98.20
2023-05-06T16:28:55.280Z,98.60
2023-05-06T16:31:22.169Z,98.40
2023-05-06T16:33:49.380Z,98.60
2023-05-06T16:36:16.378Z,99.10
2023-05-06T16:38:43.232Z,99.40
2023-05-06T16:41:10.077Z,99.60
2023-05-06T16:43:40.077Z,99.90
2023-05-06T16:46:07.029Z,99.90
2023-05-06T16:48:33.984Z,99.90
2023-05-06T16:51:01.266Z,99.90
2023-05-06T16:53:29.447Z,99.90
2023-05-06T16:55:56.380Z,99.10
2023-05-06T16:58:24.454Z,98.70
2023-05-06T17:00:54.129Z,98.50
2023-05-06T17:03:21.387Z,98.20
2023-05-06T17:05:48.252Z,98.60
2023-05-06T17:08:16.292Z,98.20
2023-05-06T17:10:43.594Z,98.40
2023-05-06T17:13:10.737Z,98.90
2023-05-06T17:15:37.733Z,99.40
2023-05-06T17:18:04.673Z,99.90
2023-05-06T17:20:31.470Z,99.90
2023-05-06T17:22:58.358Z,99.90
2023-05-06T17:25:25.225Z,99.90
2023-05-06T17:27:52.105Z,99.90
2023-05-06T17:30:20.800Z,99.90
2023-05-06T17:32:47.732Z,99.90
2023-05-06T17:35:14.937Z,99.90
2023-05-06T17:37:42.962Z,99.90
2023-05-06T17:40:09.962Z,99.90
2023-05-06T17:42:36.977Z,99.90
2023-05-06T17:45:04.417Z,99.90
2023-05-06T17:47:31.230Z,99.90
2023-05-06T17:49:58.149Z,99.90
2023-05-06T17:52:28.215Z,99.90
2023-05-06T17:55:10.779Z,99.90
2023-05-06T17:57:38.577Z,99.90
2023-05-06T18:00:09.274Z,99.90
2023-05-06T18:02:36.620Z,99.90
2023-05-06T18:05:03.671Z,99.90
2023-05-06T18:07:30.664Z,99.90
2023-05-06T18:09:57.838Z,99.90
2023-05-06T18:12:24.741Z,99.90
2023-05-06T18:14:51.607Z,99.90
2023-05-06T18:17:18.476Z,99.90
2023-05-06T18:19:45.366Z,99.90
2023-05-06T18:22:12.196Z,99.90
2023-05-06T18:24:39.081Z,99.90
2023-05-06T18:27:06.043Z,99.90
2023-05-06T18:29:34.825Z,99.90
2023-05-06T18:32:01.972Z,99.90
2023-05-06T18:34:29.639Z,99.90
2023-05-06T18:36:57.918Z,99.90
2023-05-06T18:39:25.348Z,99.90
2023-05-06T18:41:52.394Z,99.90
2023-05-06T18:44:19.206Z,99.90
2023-05-06T18:46:46.233Z,99.90
2023-05-06T18:49:14.327Z,99.90
2023-05-06T18:51:41.261Z,99.90
2023-05-06T18:54:08.293Z,99.90
2023-05-06T18:56:36.658Z,99.90
2023-05-06T18:59:03.637Z,99.90
2023-05-06T19:01:30.629Z,99.90
2023-05-06T19:03:57.537Z,99.90
2023-05-06T19:06:24.533Z,99.90
2023-05-06T19:08:51.404Z,99.90
2023-05-06T19:11:19.211Z,99.90
2023-05-06T19:13:46.381Z,99.90
2023-05-06T19:16:14.026Z,99.90
2023-05-06T19:18:41.088Z,99.90
2023-05-06T19:21:12.135Z,99.90
2023-05-06T19:23:39.201Z,99.90
2023-05-06T19:26:07.131Z,99.90
2023-05-06T19:28:34.374Z,99.90
2023-05-06T19:31:01.736Z,99.90
2023-05-06T19:33:28.802Z,99.90
2023-05-06T19:35:55.683Z,99.90
2023-05-06T19:38:22.526Z,99.90
2023-05-06T19:40:49.421Z,99.90
2023-05-06T19:43:16.676Z,99.90
2023-05-06T19:45:43.508Z,99.90
2023-05-06T19:48:10.382Z,99.90
2023-05-06T19:50:37.281Z,99.90
2023-05-06T19:53:04.239Z,99.90
2023-05-06T19:55:31.621Z,99.90
2023-05-06T19:57:58.763Z,99.90
2023-05-06T20:00:27.962Z,99.90
2023-05-06T20:02:56.644Z,99.90
2023-05-06T20:05:23.992Z,99.90
2023-05-06T20:07:54.416Z,99.90
2023-05-06T20:10:21.425Z,99.90
2023-05-06T20:12:48.426Z,99.90
2023-05-06T20:15:15.780Z,99.90
2023-05-06T20:17:42.723Z,99.90
2023-05-06T20:20:11.331Z,99.90
2023-05-06T20:22:39.709Z,99.90
2023-05-06T20:25:16.166Z,99.90
2023-05-06T20:27:46.477Z,99.90
2023-05-06T20:30:13.539Z,99.90
2023-05-06T20:32:40.961Z,99.90
2023-05-06T20:35:08.839Z,99.90
2023-05-06T20:37:36.755Z,99.90
2023-05-06T20:40:06.628Z,99.90
2023-05-06T20:42:35.989Z,99.90
2023-05-06T20:45:06.787Z,99.90
2023-05-06T20:47:33.679Z,99.90
2023-05-06T20:50:00.589Z,99.90
2023-05-06T20:52:27.555Z,99.90
2023-05-06T20:54:54.461Z,99.90
2023-05-06T20:57:21.868Z,99.90
2023-05-06T20:59:51.110Z,99.90
2023-05-06T21:02:17.900Z,99.90
2023-05-06T21:04:44.787Z,99.90
2023-05-06T21:07:11.693Z,99.90
2023-05-06T21:09:38.650Z,99.90
2023-05-06T21:12:05.647Z,99.90
2023-05-06T21:14:32.499Z,99.90
2023-05-06T21:16:59.398Z,99.90
2023-05-06T21:19:26.318Z,99.90
2023-05-06T21:21:53.147Z,99.90
2023-05-06T21:24:20.068Z,99.90
2023-05-06T21:26:47.124Z,99.90
2023-05-06T21:29:13.973Z,99.90
2023-05-06T21:31:40.895Z,99.90
2023-05-06T21:34:10.402Z,99.90
2023-05-06T21:36:37.354Z,99.90
2023-05-06T21:39:11.964Z,99.90
2023-05-06T21:41:40.028Z,99.90
2023-05-06T21:44:09.357Z,99.90
2023-05-06T21:46:37.798Z,99.90
2023-05-06T21:49:05.259Z,99.90
2023-05-06T21:51:34.654Z,99.90
2023-05-06T21:54:01.827Z,99.90
2023-05-06T21:56:28.947Z,99.90
2023-05-06T21:58:55.940Z,99.90
2023-05-06T22:01:26.142Z,99.90
2023-05-06T22:03:54.168Z,99.90
2023-05-06T22:06:21.373Z,99.90
2023-05-06T22:08:48.316Z,99.90
2023-05-06T22:11:15.263Z,99.90
2023-05-06T22:13:42.116Z,99.90
2023-05-06T22:16:09.832Z,99.90
2023-05-06T22:18:41.166Z,99.90
2023-05-06T22:21:08.765Z,99.90
2023-05-06T22:23:35.754Z,99.90
2023-05-06T22:26:02.709Z,99.90
2023-05-06T22:28:29.580Z,99.90
2023-05-06T22:30:56.449Z,99.90
2023-05-06T22:33:23.282Z,99.90
2023-05-06T22:35:50.278Z,99.90
2023-05-06T22:38:17.127Z,99.90
2023-05-06T22:40:44.031Z,99.90
2023-05-06T22:43:10.925Z,99.90
2023-05-06T22:45:40.928Z,99.90
2023-05-06T22:48:07.897Z,99.90
2023-05-06T22:50:34.833Z,99.90
2023-05-06T22:53:10.271Z,99.90
2023-05-06T22:55:40.932Z,99.90
2023-05-06T22:58:07.806Z,99.90
2023-05-06T23:00:34.690Z,99.90
2023-05-06T23:03:01.613Z,99.90
2023-05-06T23:05:28.515Z,99.90
2023-05-06T23:07:55.533Z,99.90
2023-05-06T23:10:22.475Z,99.90
2023-05-06T23:12:49.546Z,99.90
2023-05-06T23:15:16.430Z,99.90
2023-05-06T23:17:43.322Z,99.90
2023-05-06T23:20:11.936Z,99.90
2023-05-06T23:22:38.992Z,99.90
2023-05-06T23:25:07.956Z,99.90
2023-05-06T23:27:36.242Z,99.90
2023-05-06T23:30:03.154Z,99.90
2023-05-06T23:32:30.006Z,99.90
2023-05-06T23:34:56.937Z,99.90
2023-05-06T23:37:23.909Z,99.90
2023-05-06T23:39:51.174Z,99.90
2023-05-06T23:42:18.003Z,99.90
2023-05-06T23:44:44.979Z,99.90
2023-05-06T23:47:11.980Z,99.90
2023-05-06T23:49:38.812Z,99.90
2023-05-06T23:52:05.740Z,99.90
2023-05-06T23:54:32.599Z,99.90
2023-05-06T23:56:59.465Z,99.90
2023-05-06T23:59:26.306Z,99.90
